createdAt,value
2019-03-24T00:01:13.100Z,50.33
2019-03-24T00:03:42.643Z,44.93
2019-03-24T00:06:12.422Z,52.60
2019-03-24T00:08:41.908Z,42.27
2019-03-24T00:11:11.608Z,48.60
2019-03-24T00:13:41.343Z,51.20
2019-03-24T00:16:11.591Z,48.85
2019-03-24T00:18:41.298Z,47.67
2019-03-24T00:21:11.527Z,44.67
2019-03-24T00:23:41.365Z,40.77
2019-03-24T00:26:11.564Z,41.98
2019-03-24T00:28:41.293Z,42.83
2019-03-24T00:31:11.618Z,38.58
2019-03-24T00:33:41.318Z,39.23
2019-03-24T00:36:11.564Z,40.63
2019-03-24T00:38:41.306Z,43.70
2019-03-24T00:41:11.695Z,37.67
2019-03-24T00:43:41.326Z,40.57
2019-03-24T00:46:11.554Z,39.78
2019-03-24T00:48:40.991Z,42.07
2019-03-24T00:51:11.551Z,45.52
2019-03-24T00:53:41.291Z,55.87
2019-03-24T00:56:11.639Z,39.88
2019-03-24T00:58:41.279Z,41.73
2019-03-24T01:01:11.565Z,40.17
2019-03-24T01:03:41.323Z,38.13
2019-03-24T01:06:11.551Z,38.42
2019-03-24T01:08:41.273Z,36.50
2019-03-24T01:11:11.577Z,38.00
2019-03-24T01:13:41.341Z,33.10
2019-03-24T01:16:11.581Z,33.13
2019-03-24T01:18:41.297Z,32.80
2019-03-24T01:21:11.591Z,32.33
2019-03-24T01:23:41.361Z,31.80
2019-03-24T01:26:11.586Z,32.38
2019-03-24T01:28:41.309Z,34.10
2019-03-24T01:31:11.610Z,31.73
2019-03-24T01:33:41.316Z,31.30
2019-03-24T01:36:11.606Z,32.95
2019-03-24T01:38:41.332Z,33.93
2019-03-24T01:41:11.624Z,33.88
2019-03-24T01:43:41.406Z,32.97
2019-03-24T01:46:11.702Z,32.58
2019-03-24T01:48:41.404Z,30.10
2019-03-24T01:51:11.642Z,32.25
2019-03-24T01:53:41.362Z,35.20
2019-03-24T01:56:11.670Z,31.68
2019-03-24T01:58:41.418Z,30.83
2019-03-24T02:01:11.647Z,30.57
2019-03-24T02:03:41.378Z,30.43
2019-03-24T02:06:11.705Z,29.12
2019-03-24T02:08:41.428Z,27.30
2019-03-24T02:11:11.695Z,27.80
2019-03-24T02:13:41.369Z,26.77
2019-03-24T02:16:11.729Z,25.55
2019-03-24T02:18:41.431Z,27.37
2019-03-24T02:21:11.708Z,25.60
2019-03-24T02:23:41.441Z,25.13
2019-03-24T02:26:11.729Z,24.27
2019-03-24T02:28:41.437Z,24.13
2019-03-24T02:31:11.788Z,24.50
2019-03-24T02:33:41.436Z,26.77
2019-03-24T02:36:11.756Z,21.05
2019-03-24T02:38:41.472Z,27.50
2019-03-24T02:41:11.748Z,24.55
2019-03-24T02:43:41.461Z,26.30
2019-03-24T02:46:23.460Z,28.75
2019-03-24T02:48:42.866Z,25.83
2019-03-24T02:51:12.608Z,27.67
2019-03-24T02:53:42.140Z,28.57
2019-03-24T02:56:11.842Z,27.13
2019-03-24T02:58:41.522Z,28.90
2019-03-24T03:01:11.788Z,27.90
2019-03-24T03:03:41.534Z,26.50
2019-03-24T03:06:11.799Z,29.27
2019-03-24T03:08:41.506Z,26.27
2019-03-24T03:11:11.798Z,29.27
2019-03-24T03:13:41.516Z,26.73
2019-03-24T03:16:11.787Z,27.00
2019-03-24T03:18:41.505Z,24.87
2019-03-24T03:21:11.800Z,26.20
2019-03-24T03:23:41.475Z,27.37
2019-03-24T03:26:11.797Z,26.80
2019-03-24T03:28:41.468Z,26.07
2019-03-24T03:31:11.821Z,23.87
2019-03-24T03:33:41.583Z,26.17
2019-03-24T03:36:11.834Z,25.95
2019-03-24T03:38:41.547Z,25.43
2019-03-24T03:41:11.791Z,26.20
2019-03-24T03:43:41.665Z,23.73
2019-03-24T03:46:11.817Z,23.85
2019-03-24T03:48:41.579Z,28.13
2019-03-24T03:51:11.855Z,25.90
2019-03-24T03:53:41.597Z,22.43
2019-03-24T03:56:11.850Z,24.37
2019-03-24T03:58:41.533Z,28.20
2019-03-24T04:01:11.879Z,27.93
2019-03-24T04:03:41.625Z,24.83
2019-03-24T04:06:11.912Z,23.98
2019-03-24T04:08:41.606Z,25.87
2019-03-24T04:11:11.931Z,22.67
2019-03-24T04:13:41.616Z,26.40
2019-03-24T04:16:11.905Z,22.35
2019-03-24T04:18:41.644Z,23.53
2019-03-24T04:21:11.906Z,26.80
2019-03-24T04:23:41.654Z,24.77
2019-03-24T04:26:11.917Z,24.60
2019-03-24T04:31:11.915Z,28.30
2019-03-24T04:33:41.287Z,23.17
2019-03-24T04:36:11.924Z,24.00
2019-03-24T04:38:41.592Z,28.03
2019-03-24T04:41:11.938Z,25.15
2019-03-24T04:43:41.676Z,24.87
2019-03-24T04:46:11.937Z,22.93
2019-03-24T04:48:41.663Z,23.70
2019-03-24T04:51:11.920Z,24.57
2019-03-24T04:53:41.635Z,27.37
2019-03-24T04:56:11.966Z,28.67
2019-03-24T04:58:41.826Z,27.60
2019-03-24T05:01:12.038Z,27.25
2019-03-24T05:03:41.707Z,24.00
2019-03-24T05:06:12.232Z,25.12
2019-03-24T05:08:41.842Z,25.73
2019-03-24T05:11:11.948Z,27.70
2019-03-24T05:13:41.326Z,29.93
2019-03-24T05:16:12.040Z,30.68
2019-03-24T05:18:41.842Z,26.50
2019-03-24T05:21:11.994Z,24.55
2019-03-24T05:23:42.231Z,30.07
2019-03-24T05:26:12.114Z,21.43
2019-03-24T05:28:41.762Z,25.10
2019-03-24T05:31:11.979Z,24.18
2019-03-24T05:33:41.690Z,23.90
2019-03-24T05:36:12.021Z,23.00
2019-03-24T05:38:41.703Z,24.33
2019-03-24T05:41:12.090Z,24.65
2019-03-24T05:43:41.765Z,24.50
2019-03-24T05:46:11.990Z,24.23
2019-03-24T05:48:41.709Z,21.67
2019-03-24T05:51:11.990Z,25.92
2019-03-24T05:53:41.710Z,23.90
2019-03-24T05:56:12.015Z,22.55
2019-03-24T05:58:41.722Z,22.20
2019-03-24T06:01:12.014Z,22.55
2019-03-24T06:03:41.721Z,24.77
2019-03-24T06:06:12.006Z,22.73
2019-03-24T06:08:41.734Z,24.80
2019-03-24T06:11:12.041Z,26.02
2019-03-24T06:13:41.790Z,26.43
2019-03-24T06:16:12.026Z,26.90
2019-03-24T06:18:41.756Z,31.07
2019-03-24T06:21:12.042Z,25.62
2019-03-24T06:23:41.766Z,25.17
2019-03-24T06:26:12.070Z,27.65
2019-03-24T06:28:41.778Z,27.77
2019-03-24T06:31:12.073Z,28.00
2019-03-24T06:33:41.851Z,28.53
2019-03-24T06:36:12.107Z,29.45
2019-03-24T06:38:41.823Z,26.20
2019-03-24T06:41:12.093Z,27.10
2019-03-24T06:43:41.805Z,28.77
2019-03-24T06:46:12.098Z,28.20
2019-03-24T06:48:41.921Z,34.43
2019-03-24T06:51:12.111Z,30.97
2019-03-24T06:53:41.877Z,33.93
2019-03-24T06:56:12.124Z,32.05
2019-03-24T06:58:41.909Z,29.53
2019-03-24T07:01:12.135Z,35.08
2019-03-24T07:03:41.845Z,30.77
2019-03-24T07:06:12.128Z,32.35
2019-03-24T07:08:41.966Z,32.63
2019-03-24T07:11:13.825Z,33.38
2019-03-24T07:13:43.517Z,33.27
2019-03-24T07:16:13.067Z,36.00
2019-03-24T07:18:42.430Z,33.67
2019-03-24T07:21:12.229Z,31.80
2019-03-24T07:23:41.913Z,30.87
2019-03-24T07:26:12.150Z,34.10
2019-03-24T07:28:41.528Z,30.93
2019-03-24T07:31:12.199Z,36.15
2019-03-24T07:33:41.921Z,36.47
2019-03-24T07:36:12.206Z,32.42
2019-03-24T07:38:41.879Z,34.33
2019-03-24T07:41:12.223Z,31.97
2019-03-24T07:43:41.934Z,37.67
2019-03-24T07:46:12.223Z,36.50
2019-03-24T07:48:41.966Z,36.10
2019-03-24T07:51:12.258Z,39.53
2019-03-24T07:53:41.978Z,38.97
2019-03-24T07:56:12.244Z,35.17
2019-03-24T07:58:41.976Z,35.37
2019-03-24T08:01:12.275Z,36.15
2019-03-24T08:03:41.973Z,36.53
2019-03-24T08:06:12.254Z,33.50
2019-03-24T08:08:44.495Z,34.10
2019-03-24T08:11:13.197Z,35.57
2019-03-24T08:13:53.348Z,35.53
2019-03-24T08:16:14.202Z,34.87
2019-03-24T08:18:43.944Z,36.83
2019-03-24T08:21:13.414Z,37.07
2019-03-24T08:23:43.047Z,36.10
2019-03-24T08:26:12.538Z,37.50
2019-03-24T08:28:42.003Z,34.90
2019-03-24T08:31:12.320Z,37.88
2019-03-24T08:33:42.008Z,33.97
2019-03-24T08:36:12.304Z,38.80
2019-03-24T08:38:42.074Z,39.50
2019-03-24T08:41:12.346Z,31.75
2019-03-24T08:43:42.058Z,35.33
2019-03-24T08:46:12.335Z,38.10
2019-03-24T08:48:42.063Z,34.87
2019-03-24T08:51:12.334Z,36.53
2019-03-24T08:53:42.006Z,34.03
2019-03-24T08:56:12.361Z,37.50
2019-03-24T08:58:42.070Z,35.40
2019-03-24T09:01:12.357Z,34.23
2019-03-24T09:03:44.884Z,33.40
2019-03-24T09:06:13.363Z,36.30
2019-03-24T09:08:43.063Z,35.27
2019-03-24T09:11:12.517Z,32.57
2019-03-24T09:13:42.101Z,38.07
2019-03-24T09:16:12.379Z,40.05
2019-03-24T09:18:52.065Z,36.43
2019-03-24T09:21:13.314Z,41.40
2019-03-24T09:23:43.122Z,38.33
2019-03-24T09:26:12.605Z,37.73
2019-03-24T09:28:42.126Z,39.27
2019-03-24T09:31:12.404Z,43.02
2019-03-24T09:33:42.139Z,39.50
2019-03-24T09:36:12.396Z,42.60
2019-03-24T09:38:42.130Z,42.83
2019-03-24T09:41:12.522Z,40.50
2019-03-24T09:43:42.158Z,41.47
2019-03-24T09:46:12.487Z,41.10
2019-03-24T09:48:42.178Z,45.20
2019-03-24T09:51:12.450Z,39.73
2019-03-24T09:53:42.174Z,44.93
2019-03-24T09:56:12.462Z,40.38
2019-03-24T09:58:42.187Z,41.47
2019-03-24T10:01:12.480Z,45.35
2019-03-24T10:03:42.190Z,47.03
2019-03-24T10:06:12.450Z,47.50
2019-03-24T10:08:46.994Z,47.47
2019-03-24T10:11:13.393Z,51.10
2019-03-24T10:13:42.880Z,50.40
2019-03-24T10:16:12.541Z,49.43
2019-03-24T10:18:42.254Z,46.03
2019-03-24T10:21:12.491Z,50.00
2019-03-24T10:23:42.327Z,50.30
2019-03-24T10:26:12.495Z,51.20
2019-03-24T10:28:42.189Z,53.53
2019-03-24T10:31:12.519Z,47.67
2019-03-24T10:33:42.276Z,71.60
2019-03-24T10:36:12.505Z,48.55
2019-03-24T10:38:42.315Z,54.53
2019-03-24T10:41:12.511Z,54.23
2019-03-24T10:43:42.291Z,50.60
2019-03-24T10:46:12.514Z,68.55
2019-03-24T10:48:42.225Z,49.53
2019-03-24T10:51:12.506Z,48.23
2019-03-24T10:53:42.306Z,49.77
2019-03-24T10:56:12.531Z,49.75
2019-03-24T10:58:42.295Z,52.70
2019-03-24T11:01:12.526Z,54.75
2019-03-24T11:03:42.256Z,52.13
2019-03-24T11:06:12.542Z,52.27
2019-03-24T11:08:42.244Z,53.10
2019-03-24T11:11:12.568Z,49.45
2019-03-24T11:13:42.286Z,58.90
2019-03-24T11:16:12.608Z,53.38
2019-03-24T11:18:42.328Z,50.30
2019-03-24T11:21:12.578Z,53.87
2019-03-24T11:23:42.355Z,53.23
2019-03-24T11:26:12.591Z,53.02
2019-03-24T11:28:41.995Z,48.97
2019-03-24T11:31:12.595Z,51.98
2019-03-24T11:33:42.373Z,46.17
2019-03-24T11:36:12.623Z,52.38
2019-03-24T11:38:42.379Z,52.00
2019-03-24T11:41:12.597Z,53.70
2019-03-24T11:43:42.317Z,51.70
2019-03-24T11:46:12.617Z,50.00
2019-03-24T11:48:42.349Z,47.77
2019-03-24T11:51:12.629Z,49.08
2019-03-24T11:53:42.384Z,45.17
2019-03-24T11:56:12.606Z,51.77
2019-03-24T11:58:42.382Z,50.90
2019-03-24T12:01:12.681Z,52.00
2019-03-24T12:03:42.406Z,53.47
2019-03-24T12:06:14.660Z,50.63
2019-03-24T12:08:43.865Z,47.13
2019-03-24T12:11:13.588Z,49.03
2019-03-24T12:13:43.046Z,46.70
2019-03-24T12:16:12.972Z,49.90
2019-03-24T12:18:42.443Z,46.57
2019-03-24T12:21:12.707Z,45.48
2019-03-24T12:23:42.476Z,47.43
2019-03-24T12:26:12.690Z,44.13
2019-03-24T12:28:42.058Z,46.83
2019-03-24T12:31:12.711Z,41.50
2019-03-24T12:33:42.115Z,45.77
2019-03-24T12:36:12.719Z,44.05
2019-03-24T12:38:42.393Z,44.90
2019-03-24T12:41:12.788Z,46.35
2019-03-24T12:43:42.770Z,42.60
2019-03-24T12:46:12.738Z,42.07
2019-03-24T12:48:42.747Z,42.60
2019-03-24T12:51:12.842Z,49.00
2019-03-24T12:53:42.757Z,43.65
2019-03-24T12:56:13.057Z,47.53
2019-03-24T12:58:42.779Z,46.80
2019-03-24T13:01:12.855Z,45.03
2019-03-24T13:03:42.773Z,45.55
2019-03-24T13:06:13.161Z,44.74
2019-03-24T13:08:42.785Z,45.10
2019-03-24T13:11:12.855Z,43.35
2019-03-24T13:13:42.570Z,39.93
2019-03-24T13:16:12.806Z,40.63
2019-03-24T13:18:42.611Z,43.93
2019-03-24T13:21:13.163Z,41.64
2019-03-24T13:23:42.893Z,45.00
2019-03-24T13:26:13.094Z,41.13
2019-03-24T13:28:42.755Z,40.10
2019-03-24T13:31:13.037Z,39.60
2019-03-24T13:33:42.818Z,43.30
2019-03-24T13:36:13.662Z,40.00
2019-03-24T13:38:43.113Z,41.98
2019-03-24T13:41:12.895Z,40.80
2019-03-24T13:43:42.616Z,36.70
2019-03-24T13:46:13.157Z,38.82
2019-03-24T13:48:42.859Z,36.95
2019-03-24T13:51:13.145Z,42.78
2019-03-24T13:53:42.867Z,36.75
2019-03-24T13:56:12.931Z,39.40
2019-03-24T13:58:42.866Z,39.55
2019-03-24T14:01:13.911Z,41.15
2019-03-24T14:03:43.877Z,38.67
2019-03-24T14:06:13.701Z,39.80
2019-03-24T14:08:43.142Z,42.40
2019-03-24T14:11:12.942Z,37.25
2019-03-24T14:13:42.668Z,37.33
2019-03-24T14:16:13.170Z,37.82
2019-03-24T14:18:42.905Z,38.70
2019-03-24T14:21:12.972Z,35.40
2019-03-24T14:23:42.912Z,37.70
2019-03-24T14:26:12.982Z,37.25
2019-03-24T14:28:42.770Z,34.73
2019-03-24T14:31:12.942Z,37.60
2019-03-24T14:33:42.582Z,35.17
2019-03-24T14:36:12.934Z,41.02
2019-03-24T14:38:42.694Z,41.37
2019-03-24T14:41:12.971Z,37.70
2019-03-24T14:43:42.769Z,36.07
2019-03-24T14:46:13.024Z,43.30
2019-03-24T14:48:42.836Z,37.80
2019-03-24T14:51:13.034Z,40.38
2019-03-24T14:53:42.755Z,41.67
2019-03-24T14:56:12.979Z,35.70
2019-03-24T14:58:42.705Z,37.03
2019-03-24T15:01:12.994Z,33.98
2019-03-24T15:03:42.795Z,38.80
2019-03-24T15:06:13.045Z,34.33
2019-03-24T15:08:44.123Z,41.07
2019-03-24T15:11:14.091Z,66.73
2019-03-24T15:13:43.877Z,84.87
2019-03-24T15:16:13.339Z,50.80
2019-03-24T15:18:43.096Z,46.07
2019-03-24T15:21:13.216Z,47.83
2019-03-24T15:23:42.963Z,45.10
2019-03-24T15:26:13.225Z,47.77
2019-03-24T15:28:43.039Z,47.27
2019-03-24T15:31:15.378Z,63.13
2019-03-24T15:33:45.144Z,45.43
2019-03-24T15:36:14.877Z,69.23
2019-03-24T15:38:44.926Z,46.55
2019-03-24T15:41:14.884Z,43.78
2019-03-24T15:43:44.926Z,41.35
2019-03-24T15:46:14.954Z,40.17
2019-03-24T15:48:44.767Z,40.83
2019-03-24T15:51:17.036Z,40.70
2019-03-24T15:53:45.910Z,36.80
2019-03-24T15:56:15.391Z,41.93
2019-03-24T15:58:45.291Z,43.33
2019-03-24T16:01:15.018Z,45.97
2019-03-24T16:03:44.779Z,44.63
2019-03-24T16:06:14.509Z,42.17
2019-03-24T16:08:44.324Z,47.93
2019-03-24T16:11:16.043Z,39.08
2019-03-24T16:13:45.217Z,39.25
2019-03-24T16:16:15.310Z,34.83
2019-03-24T16:18:45.134Z,39.95
2019-03-24T16:21:15.156Z,36.73
2019-03-24T16:23:45.126Z,38.08
2019-03-24T16:26:15.148Z,41.25
2019-03-24T16:28:44.925Z,43.47
2019-03-24T16:31:14.534Z,39.50
2019-03-24T16:33:45.176Z,41.10
2019-03-24T16:36:19.471Z,39.77
2019-03-24T16:39:02.950Z,39.73
2019-03-24T16:41:22.710Z,38.05
2019-03-24T16:43:52.845Z,47.70
2019-03-24T16:46:22.882Z,46.90
2019-03-24T16:48:55.816Z,45.98
2019-03-24T16:51:38.012Z,43.15
2019-03-24T16:53:58.496Z,43.77
2019-03-24T16:56:28.560Z,43.50
2019-03-24T16:58:58.653Z,47.20
2019-03-24T17:01:28.639Z,57.60
2019-03-24T17:03:58.343Z,46.00
2019-03-24T17:06:28.555Z,46.07
2019-03-24T17:09:00.779Z,44.50
2019-03-24T17:11:30.303Z,48.20
2019-03-24T17:14:00.007Z,44.23
2019-03-24T17:16:30.032Z,43.80
2019-03-24T17:19:01.281Z,42.60
2019-03-24T17:21:31.099Z,44.00
2019-03-24T17:24:00.988Z,45.10
2019-03-24T17:26:35.308Z,43.15
2019-03-24T17:29:05.875Z,41.07
2019-03-24T17:31:35.381Z,44.90
2019-03-24T17:34:06.639Z,43.37
2019-03-24T17:36:36.237Z,40.37
2019-03-24T17:39:07.404Z,45.53
2019-03-24T17:41:36.987Z,46.33
2019-03-24T17:44:06.587Z,47.53
2019-03-24T17:46:36.501Z,48.97
2019-03-24T17:49:06.079Z,46.87
2019-03-24T17:51:36.127Z,45.67
2019-03-24T17:54:06.039Z,47.03
2019-03-24T17:56:35.629Z,47.60
2019-03-24T17:59:05.153Z,51.40
2019-03-24T18:01:34.751Z,49.33
2019-03-24T18:04:04.221Z,47.63
2019-03-24T18:06:34.031Z,51.33
2019-03-24T18:09:05.818Z,54.97
2019-03-24T18:11:35.437Z,52.57
2019-03-24T18:14:06.465Z,49.17
2019-03-24T18:16:36.980Z,54.57
2019-03-24T18:19:11.031Z,52.97
2019-03-24T18:21:43.693Z,50.20
2019-03-24T18:24:13.446Z,51.80
2019-03-24T18:26:44.635Z,52.40
2019-03-24T18:29:14.203Z,54.10
2019-03-24T18:31:43.737Z,53.97
2019-03-24T18:34:13.359Z,55.73
2019-03-24T18:36:44.705Z,57.43
2019-03-24T18:39:14.412Z,51.07
2019-03-24T18:41:44.262Z,59.70
2019-03-24T18:44:15.860Z,54.17
2019-03-24T18:46:45.478Z,61.70
2019-03-24T18:49:15.224Z,59.60
2019-03-24T18:51:45.036Z,59.17
2019-03-24T18:54:14.484Z,56.50
2019-03-24T18:56:44.262Z,61.90
2019-03-24T18:59:13.734Z,57.63
2019-03-24T19:01:44.473Z,52.60
2019-03-24T19:04:14.316Z,50.40
2019-03-24T19:06:44.197Z,50.43
2019-03-24T19:09:13.726Z,50.17
2019-03-24T19:11:46.533Z,53.10
2019-03-24T19:14:21.218Z,51.33
2019-03-24T19:16:50.768Z,47.80
2019-03-24T19:19:20.760Z,45.07
2019-03-24T19:21:54.891Z,50.20
2019-03-24T19:24:24.430Z,50.37
2019-03-24T19:26:54.320Z,52.50
2019-03-24T19:29:24.190Z,45.03
2019-03-24T19:31:55.404Z,53.87
2019-03-24T19:34:25.226Z,51.73
2019-03-24T19:36:58.877Z,48.60
2019-03-24T19:39:29.019Z,51.83
2019-03-24T19:41:58.635Z,48.60
2019-03-24T19:44:28.382Z,48.03
2019-03-24T19:46:57.873Z,48.47
2019-03-24T19:49:27.468Z,49.97
2019-03-24T19:51:57.413Z,52.43
2019-03-24T19:54:35.032Z,49.15
2019-03-24T19:57:06.837Z,53.23
2019-03-24T19:59:36.499Z,52.53
2019-03-24T20:02:06.231Z,54.70
2019-03-24T20:04:37.157Z,53.87
2019-03-24T20:07:06.941Z,51.17
2019-03-24T20:09:36.443Z,56.93
2019-03-24T20:12:09.603Z,54.80
2019-03-24T20:14:39.342Z,54.10
2019-03-24T20:17:12.236Z,57.90
2019-03-24T20:19:41.398Z,56.97
2019-03-24T20:22:11.985Z,57.80
2019-03-24T20:24:41.512Z,59.50
2019-03-24T20:27:11.559Z,54.97
2019-03-24T20:29:41.368Z,58.80
2019-03-24T20:32:11.506Z,57.10
2019-03-24T20:34:41.371Z,57.80
2019-03-24T20:37:11.288Z,55.10
2019-03-24T20:39:40.886Z,61.30
2019-03-24T20:42:10.704Z,56.17
2019-03-24T20:44:40.603Z,60.30
2019-03-24T20:47:10.303Z,63.50
2019-03-24T20:49:39.861Z,65.83
2019-03-24T20:52:11.064Z,67.67
2019-03-24T20:54:40.963Z,65.77
2019-03-24T20:57:16.100Z,64.57
2019-03-24T20:59:46.080Z,60.33
2019-03-24T21:02:15.908Z,67.67
2019-03-24T21:04:48.109Z,58.77
2019-03-24T21:07:18.184Z,61.17
2019-03-24T21:09:47.972Z,63.80
2019-03-24T21:12:17.791Z,61.58
2019-03-24T21:14:49.455Z,69.70
2019-03-24T21:17:19.525Z,62.73
2019-03-24T21:19:49.369Z,63.70
2019-03-24T21:22:18.905Z,67.13
2019-03-24T21:24:48.558Z,60.73
2019-03-24T21:27:18.560Z,67.43
2019-03-24T21:29:49.069Z,62.10
2019-03-24T21:32:18.647Z,62.97
2019-03-24T21:34:48.431Z,62.87
2019-03-24T21:37:19.629Z,66.23
2019-03-24T21:39:49.678Z,61.73
2019-03-24T21:42:19.440Z,61.50
2019-03-24T21:44:48.975Z,58.27
2019-03-24T21:47:18.527Z,61.80
2019-03-24T21:49:48.011Z,69.23
2019-03-24T21:52:17.526Z,67.40
2019-03-24T21:54:47.450Z,66.87
2019-03-24T21:57:16.985Z,65.20
2019-03-24T21:59:46.476Z,65.27
2019-03-24T22:02:15.949Z,65.87
2019-03-24T22:04:45.472Z,61.70
2019-03-24T22:07:14.917Z,66.80
2019-03-24T22:09:44.420Z,67.30
2019-03-24T22:12:13.870Z,68.20
2019-03-24T22:14:43.432Z,64.93
2019-03-24T22:17:13.672Z,69.70
2019-03-24T22:19:43.442Z,61.53
2019-03-24T22:22:13.684Z,67.50
2019-03-24T22:24:43.434Z,69.47
2019-03-24T22:27:13.712Z,65.47
2019-03-24T22:29:43.465Z,67.30
2019-03-24T22:32:13.716Z,65.25
2019-03-24T22:34:43.616Z,67.37
2019-03-24T22:37:16.072Z,62.05
2019-03-24T22:39:48.943Z,65.93
2019-03-24T22:42:18.593Z,65.83
2019-03-24T22:44:48.070Z,65.03
2019-03-24T22:47:17.603Z,70.33
2019-03-24T22:49:47.047Z,68.30
2019-03-24T22:52:16.647Z,67.57
2019-03-24T22:54:46.389Z,73.77
2019-03-24T22:57:15.865Z,68.80
2019-03-24T22:59:45.453Z,66.70
2019-03-24T23:02:15.025Z,73.40
2019-03-24T23:04:44.491Z,70.93
2019-03-24T23:07:13.951Z,68.13
2019-03-24T23:09:43.479Z,70.70
2019-03-24T23:12:13.745Z,71.30
2019-03-24T23:14:43.473Z,69.60
2019-03-24T23:17:13.816Z,69.62
2019-03-24T23:19:43.532Z,68.67
2019-03-24T23:22:13.888Z,71.22
2019-03-24T23:24:43.491Z,71.20
2019-03-24T23:27:13.814Z,68.40
2019-03-24T23:29:43.488Z,66.47
2019-03-24T23:32:13.770Z,63.02
2019-03-24T23:34:43.487Z,64.57
2019-03-24T23:37:13.790Z,70.12
2019-03-24T23:39:43.432Z,63.67
2019-03-24T23:42:13.790Z,63.17
2019-03-24T23:44:43.498Z,66.37
2019-03-24T23:47:13.770Z,66.07
2019-03-24T23:49:43.134Z,65.00
2019-03-24T23:52:13.787Z,66.10
2019-03-24T23:54:43.462Z,65.57
2019-03-24T23:57:13.803Z,68.30
2019-03-24T23:59:43.166Z,69.20
